x

South Brooks (46132) Wave Buoy

10:00 - Sat 27th Aug 2016 All times are PDT. -7 hours from GMT.

  • Sig Wave height 4.6ft
  • Peak Period 8s
  • Wind
    9mph, 11mph gusts
  • Sea Temp 55°f
  • Air Temp 57°f
  • Sea Pressure 1013.4mb
  • South Brooks
  • South Brooks

More Historic Weather Station data

Upgrade to MSW Pro to gain access to the past 30 days of data for over 8000 Wavebouys and Weather Stations around the globe.

Join Pro

Comparision Forecast

View Surf forecast
   
sam. 08/27 10:00 4.5ft 8s 9 11 mph 1013.4mb 55f 57f
9:00 4.5ft 8s 11 13 mph 1013.4mb 55f 58f
8:00 4.5ft 8s 11 13 mph 1013mb 55f 57f
7:00 5ft 8s 16 18 mph 1013mb 55f 57f
6:00 5ft 8s 13 16 mph 1013.2mb 55f 58f
5:00 5ft 8s 13 16 mph 1013.2mb 56f 58f
4:00 5ft 8s 16 18 mph 1013mb 55f 58f
3:00 5ft 8s 18 20 mph 1013.1mb 55f 58f
2:00 5ft 8s 18 20 mph 1012.9mb 55f 58f
1:00 5ft 8s 16 20 mph 1012.8mb 55f 57f
12:00 5.5ft 7s 16 18 mph 1012.5mb 55f 57f
11:00 5ft 7s 18 20 mph 1012.2mb 55f 57f
10:00 5ft 7s 18 22 mph 1012.3mb 55f 57f
9:00 5ft 7s 18 22 mph 1012.3mb 55f 57f
8:00 5ft 8s 18 22 mph 1012.1mb 55f 57f
7:00 5ft 8s 20 25 mph 1012.1mb 55f 56f
6:00 5.5ft 8s 20 25 mph 1012.2mb 55f 56f
5:00 5.5ft 8s 20 25 mph 1012.2mb 55f 56f
4:00 6ft 8s 20 22 mph 1012.1mb 55f 55f
3:00 6ft 8s 22 27 mph 1011.8mb 55f 56f
2:00 6ft 7s 25 29 mph 1011.7mb 55f 56f
1:00 6ft 7s 25 29 mph 1012mb 55f 57f
12:00 6.5ft 8s 20 25 mph 1012.8mb 55f 57f
ven. 08/26 11:00 6.5ft 8s 22 27 mph 1013.1mb 55f 56f
10:00 6.5ft 8s 22 29 mph 1013.4mb 55f 56f
9:00 7ft 8s 25 31 mph 1013.4mb 55f 57f
8:00 7ft 8s 29 36 mph 1012.8mb 55f 56f
7:00 6.5ft 5s 25 29 mph 1013mb 55f 56f
6:00 7ft 6s 27 31 mph 1013.3mb 55f 58f
5:00 7.5ft 8s 27 31 mph 1013.4mb 55f 58f
4:00 8ft 8s 29 34 mph 1013.4mb 55f 57f
3:00 8ft 8s 31 38 mph 1013.2mb 55f 58f
2:00 7.5ft 8s 27 31 mph 1014.1mb 53f 57f
1:00 7ft 9s 22 29 mph 1014.5mb 53f 57f
12:00 7ft 9s 27 31 mph 1014.2mb 53f 57f
11:00 7ft 8s 27 31 mph 1014.1mb 53f 57f
10:00 7ft 9s 25 29 mph 1014.2mb 53f 57f
9:00 6.5ft 9s 27 34 mph 1013.7mb 53f 57f
8:00 6ft 10s 27 34 mph 1013.7mb 53f 57f
7:00 5.5ft 9s 27 31 mph 1013.8mb 53f 57f
6:00 5.5ft 8s 22 27 mph 1014.2mb 53f 56f
5:00 5.5ft 8s 22 27 mph 1014.2mb 54f 57f
4:00 6ft 8s 20 25 mph 1014.6mb 53f 56f
3:00 6ft 8s 22 27 mph 1014.6mb 53f 57f
2:00 6ft 9s 22 27 mph 1015.1mb 53f 57f
1:00 6.5ft 9s 22 27 mph 1015.5mb 54f 57f
12:00 6.5ft 6s 22 27 mph 1015.7mb 53f 57f
jeu. 08/25 11:00 6.5ft 6s 22 27 mph 1016.2mb 54f 57f
9:00 7.5ft 8s 20 25 mph 1016.4mb 54f 56f
7:00  -   -  25
mph
- - -
6:00 7ft 8s 25 29 mph 1016.7mb 54f 57f
5:00 7ft 8s 22 27 mph 1017.3mb 54f 56f
4:00 7ft 10s 22 27 mph 1018mb 54f 56f
3:00 7ft 9s 22 27 mph 1018.8mb 54f 56f
2:00 7ft 9s 22 27 mph 1019.1mb 54f 56f
1:00  -   -  22
mph
- - -
12:00 7ft 8s 22 29 mph 1020.2mb 53f 55f
11:00 7ft 8s 25 29 mph 1020.5mb 53f 55f
10:00 7ft 8s 25 29 mph 1020.6mb 53f 55f
9:00 7ft 8s 25 29 mph 1020.8mb 53f 55f
7:00 6ft 9s 25 29 mph 1020.9mb 53f 56f
6:00 6.5ft 9s 25 29 mph 1021mb 53f 56f
5:00 6ft 9s 22 29 mph 1021.1mb 53f 56f
4:00 6ft 8s 22 27 mph 1021.4mb 53f 56f
3:00 6ft 8s 25 29 mph 1021.3mb 53f 56f
2:00 6ft 8s 27 31 mph 1021.4mb 52f 57f
1:00 6ft 9s 22 29 mph 1022.1mb 52f 57f
12:00 6ft 6s 25 27 mph 1022.1mb 53f 57f
mer. 08/24 11:00 6ft 9s 22 27 mph 1022.4mb 53f 57f
10:00 6ft 10s 22 27 mph 1022.7mb 53f 56f
9:00 6ft 7s 25 29 mph 1022.5mb 53f 57f
8:00 6ft 7s 25 29 mph 1022.3mb 54f 56f
7:00 6ft 10s 22 27 mph 1022.5mb 53f 56f
6:00 6ft 10s 22 27 mph 1022.7mb 53f 56f
5:00 5ft 10s 25 27 mph 1023.1mb 53f 56f
4:00 5ft 7s 22 27 mph 1023.8mb 53f 56f
3:00 5ft 11s 20 22 mph 1024.2mb 54f 56f
2:00 4.5ft 6s 18 22 mph 1024.7mb 53f 56f
1:00 4.5ft 6s 20 22 mph 1025.1mb 53f 56f
12:00 4.5ft 6s 20 22 mph 1025.3mb 53f 56f
11:00 4.5ft 6s 18 20 mph 1025.4mb 53f 56f
10:00 5ft 6s 20 22 mph 1025.1mb 52f 55f
9:00 5ft 6s 22 27 mph 1025mb 52f 55f
8:00 5ft 6s 25 29 mph 1024.6mb 52f 56f
7:00 5ft 6s 25 29 mph 1024.4mb 52f 56f